Time;durP1;ratioP1;P1;durP2;ratioP2;P2;SDS_P1;SDS_P2;PMS_P1;PMS_P2;Temp;Humidity;BMP_temperature;BMP_pressure;BME280_temperature;BME280_humidity;BME280_pressure;Samples;Min_cycle;Max_cycle;Signal;HPM_P1;HPM_P2
2021/12/29 00:00:35;;;;;;;19.40;9.73;;;3.70;99.90;;;;;;5076335;28;20039;-50
2021/12/29 00:03:03;;;;;;;17.02;9.27;;;3.70;99.90;;;;;;5094502;28;20071;-53
2021/12/29 00:05:31;;;;;;;16.08;9.85;;;3.80;99.90;;;;;;5094269;28;20488;-51
2021/12/29 00:07:58;;;;;;;16.42;9.95;;;3.80;99.90;;;;;;5094248;28;20119;-54
2021/12/29 00:10:25;;;;;;;15.85;10.55;;;3.90;99.90;;;;;;5094409;28;20044;-56
2021/12/29 00:12:54;;;;;;;18.88;11.05;;;3.90;99.90;;;;;;5094300;28;20164;-55
2021/12/29 00:15:27;;;;;;;20.60;10.50;;;4.00;99.90;;;;;;5093731;28;20500;-54
2021/12/29 00:17:57;;;;;;;16.67;9.10;;;4.00;99.90;;;;;;5094451;28;20455;-54
2021/12/29 00:20:28;;;;;;;17.15;9.07;;;4.00;99.90;;;;;;5094044;28;20093;-54
2021/12/29 00:23:00;;;;;;;12.57;8.00;;;3.90;99.90;;;;;;5094131;28;20123;-55
2021/12/29 00:25:28;;;;;;;13.95;6.88;;;3.80;99.90;;;;;;5093690;28;20052;-54
2021/12/29 00:27:55;;;;;;;;;;;3.70;99.90;;;;;;5093676;28;20119;-54
2021/12/29 00:30:23;;;;;;;6.60;4.57;;;3.60;99.90;;;;;;5075659;28;19973;-49
2021/12/29 00:32:57;;;;;;;7.13;4.15;;;3.60;99.90;;;;;;5093885;28;20434;-54
2021/12/29 00:36:00;;;;;;;7.63;4.00;;;3.70;99.90;;;;;;5030856;28;20056;-53
2021/12/29 00:38:45;;;;;;;9.55;4.68;;;3.80;99.90;;;;;;5089058;28;20105;-52
2021/12/29 00:41:31;;;;;;;9.25;5.75;;;3.80;99.90;;;;;;5094208;28;20055;-53
2021/12/29 00:44:01;;;;;;;14.57;8.20;;;3.90;99.90;;;;;;5093512;28;20404;-53
2021/12/29 00:47:12;;;;;;;19.08;8.88;;;4.00;99.90;;;;;;5079426;28;20113;-52
2021/12/29 00:49:40;;;;;;;19.38;10.30;;;4.00;99.90;;;;;;5093569;28;20511;-53
2021/12/29 00:52:07;;;;;;;17.60;10.15;;;4.00;99.90;;;;;;5093715;28;20039;-54
2021/12/29 00:54:40;;;;;;;14.88;8.57;;;4.10;99.90;;;;;;5093533;28;20093;-53
2021/12/29 00:57:07;;;;;;;11.32;6.15;;;4.10;99.90;;;;;;5075001;28;20118;-54
2021/12/29 00:59:34;;;;;;;10.15;5.13;;;4.10;99.90;;;;;;5093507;28;20047;-54
2021/12/29 01:02:02;;;;;;;7.10;5.10;;;4.10;99.90;;;;;;5093499;28;20098;-54
2021/12/29 01:04:29;;;;;;;8.25;4.80;;;4.00;99.90;;;;;;5093235;28;20074;-52
2021/12/29 01:06:56;;;;;;;5.10;3.63;;;4.00;99.90;;;;;;5092763;28;20047;-53
2021/12/29 01:09:23;;;;;;;7.03;4.00;;;4.00;99.90;;;;;;5093152;28;20442;-54
2021/12/29 01:11:54;;;;;;;8.13;4.90;;;4.10;99.90;;;;;;5093211;28;20044;-53
2021/12/29 01:14:23;;;;;;;18.52;6.68;;;4.10;99.90;;;;;;5093304;28;20052;-52
2021/12/29 01:16:50;;;;;;;12.10;6.70;;;4.10;99.90;;;;;;5092540;28;20052;-53
2021/12/29 01:19:21;;;;;;;13.02;8.25;;;4.00;99.90;;;;;;5093164;28;20101;-52
2021/12/29 01:21:53;;;;;;;14.68;8.73;;;4.10;99.90;;;;;;5092933;28;20059;-53
2021/12/29 01:24:22;;;;;;;17.92;10.80;;;4.10;99.90;;;;;;5093010;28;20079;-53
2021/12/29 01:26:50;;;;;;;18.55;11.82;;;4.10;99.90;;;;;;5092592;28;20377;-53
2021/12/29 01:29:17;;;;;;;20.48;11.52;;;4.10;99.90;;;;;;5092738;28;20044;-53
2021/12/29 01:31:45;;;;;;;17.55;11.63;;;4.10;99.90;;;;;;5092941;28;20552;-53
2021/12/29 01:34:13;;;;;;;18.50;9.95;;;4.10;99.90;;;;;;5092855;28;20458;-55
2021/12/29 01:36:40;;;;;;;14.18;9.00;;;4.10;99.90;;;;;;5092289;28;20044;-52
2021/12/29 01:39:13;;;;;;;11.57;8.13;;;4.20;99.90;;;;;;5091876;28;20054;-54
2021/12/29 01:41:42;;;;;;;10.57;7.10;;;4.30;99.90;;;;;;5092538;28;20066;-54
2021/12/29 01:44:11;;;;;;;10.27;5.82;;;4.40;99.90;;;;;;5092601;28;20054;-54
2021/12/29 01:46:39;;;;;;;12.75;7.50;;;4.40;99.90;;;;;;5092116;28;20085;-54
2021/12/29 01:49:07;;;;;;;13.48;8.48;;;4.40;99.90;;;;;;5092434;28;20079;-55
2021/12/29 01:51:35;;;;;;;13.68;7.25;;;4.40;99.90;;;;;;5092182;28;20097;-53
2021/12/29 01:54:15;;;;;;;9.55;6.63;;;4.40;99.90;;;;;;5092448;28;20047;-53
2021/12/29 01:56:46;;;;;;;12.43;6.88;;;4.40;99.90;;;;;;5091936;28;20059;-53
2021/12/29 01:59:14;;;;;;;9.00;5.93;;;4.40;99.90;;;;;;5092383;28;20035;-53
2021/12/29 02:01:43;;;;;;;35.20;8.23;;;4.50;99.90;;;;;;5092403;28;20405;-53
2021/12/29 02:04:10;;;;;;;18.25;8.90;;;4.50;99.90;;;;;;5092134;28;20051;-53
2021/12/29 02:06:37;;;;;;;14.32;8.30;;;4.30;99.90;;;;;;5091743;28;20097;-55
2021/12/29 02:09:05;;;;;;;21.00;10.02;;;4.10;99.90;;;;;;5092105;28;20435;-53
2021/12/29 02:11:37;;;;;;;17.27;10.63;;;4.00;99.90;;;;;;5091917;28;20047;-50
2021/12/29 02:14:06;;;;;;;17.55;10.05;;;4.00;99.90;;;;;;5091987;28;20105;-55
2021/12/29 02:16:34;;;;;;;16.55;10.77;;;4.00;99.90;;;;;;5091857;28;20396;-54
2021/12/29 02:19:06;;;;;;;14.98;9.23;;;4.10;99.90;;;;;;5091839;28;20044;-53
2021/12/29 02:21:33;;;;;;;18.08;9.45;;;4.10;99.90;;;;;;5091962;28;20085;-55
2021/12/29 02:24:36;;;;;;;15.57;8.80;;;4.10;99.90;;;;;;5092070;28;20044;-52
2021/12/29 02:26:52;;;;;;;12.60;7.97;;;4.20;99.90;;;;;;5091226;28;20241;-56
2021/12/29 02:29:19;;;;;;;14.18;8.98;;;4.20;99.90;;;;;;5091988;28;20101;-53
2021/12/29 02:31:47;;;;;;;12.85;7.93;;;4.20;99.90;;;;;;5091856;28;20123;-51
2021/12/29 02:34:16;;;;;;;11.32;7.47;;;4.30;99.90;;;;;;5091734;28;20048;-53
2021/12/29 02:36:45;;;;;;;11.23;6.38;;;4.30;99.90;;;;;;5091188;28;20064;-55
2021/12/29 02:39:18;;;;;;;10.18;7.20;;;4.40;99.90;;;;;;5091807;28;20048;-56
2021/12/29 02:41:50;;;;;;;10.05;6.88;;;4.40;99.90;;;;;;5091761;28;20044;-54
2021/12/29 02:44:25;;;;;;;10.98;6.53;;;4.50;99.90;;;;;;5091565;28;20132;-55
2021/12/29 02:46:55;;;;;;;11.80;7.30;;;4.70;99.90;;;;;;5091220;28;20048;-51
2021/12/29 02:49:22;;;;;;;9.68;6.30;;;4.70;99.90;;;;;;5091352;28;20046;-52
2021/12/29 02:51:49;;;;;;;8.77;6.57;;;4.70;99.90;;;;;;5073385;28;20522;-52
2021/12/29 02:54:17;;;;;;;11.00;7.45;;;4.80;99.90;;;;;;5091655;28;20052;-53
2021/12/29 02:56:48;;;;;;;8.75;6.78;;;4.80;99.90;;;;;;5090925;28;20432;-53
2021/12/29 02:59:16;;;;;;;9.18;5.25;;;4.80;99.90;;;;;;5091624;28;20040;-55
2021/12/29 03:01:43;;;;;;;7.18;4.68;;;4.80;99.90;;;;;;5091527;28;20040;-51
2021/12/29 03:04:11;;;;;;;8.25;5.30;;;4.70;99.90;;;;;;5091477;28;20122;-52
2021/12/29 03:06:39;;;;;;;12.57;6.72;;;4.60;99.90;;;;;;5090808;28;20040;-51
2021/12/29 03:09:09;;;;;;;18.08;10.43;;;4.50;99.90;;;;;;5091388;28;20040;-54
2021/12/29 03:11:36;;;;;;;18.58;11.27;;;4.50;99.90;;;;;;5091783;28;20036;-53
2021/12/29 03:14:04;;;;;;;19.88;11.65;;;4.40;99.90;;;;;;5091333;28;20044;-54
2021/12/29 03:16:34;;;;;;;19.75;11.68;;;4.40;99.90;;;;;;5090919;28;20044;-51
2021/12/29 03:19:03;;;;;;;20.20;12.25;;;4.40;99.90;;;;;;5091378;28;20097;-53
2021/12/29 03:21:32;;;;;;;20.83;11.38;;;4.40;99.90;;;;;;5091265;28;20050;-52
2021/12/29 03:23:59;;;;;;;10.32;6.85;;;4.40;99.90;;;;;;5091295;28;20044;-53
2021/12/29 03:26:26;;;;;;;8.50;5.50;;;4.50;99.90;;;;;;5090917;28;20040;-53
2021/12/29 03:28:54;;;;;;;7.00;5.05;;;4.40;99.90;;;;;;5090994;28;20488;-53
2021/12/29 03:31:21;;;;;;;7.85;4.65;;;4.40;99.90;;;;;;5091182;28;20044;-55
2021/12/29 03:33:49;;;;;;;10.27;5.03;;;4.40;99.90;;;;;;5091232;28;20509;-53
2021/12/29 03:36:18;;;;;;;9.88;5.88;;;4.40;99.90;;;;;;5090757;28;20569;-52
2021/12/29 03:38:46;;;;;;;11.10;7.13;;;4.40;99.90;;;;;;5090961;28;20044;-55
2021/12/29 03:41:16;;;;;;;15.38;9.18;;;4.40;99.90;;;;;;5091186;28;20083;-52
2021/12/29 03:43:44;;;;;;;16.30;10.45;;;4.50;99.90;;;;;;5091087;28;20098;-55
2021/12/29 03:46:12;;;;;;;20.30;12.25;;;4.60;99.90;;;;;;5090696;28;20048;-52
2021/12/29 03:48:41;;;;;;;20.48;12.02;;;4.80;99.90;;;;;;5091067;28;20040;-52
2021/12/29 03:51:08;;;;;;;17.00;10.40;;;4.90;99.90;;;;;;5090929;28;20068;-51
2021/12/29 03:53:35;;;;;;;;;;;5.00;99.90;;;;;;5091590;28;20553;-54
2021/12/29 03:56:03;;;;;;;18.33;10.43;;;5.00;99.90;;;;;;5090462;28;19924;-54
2021/12/29 03:58:30;;;;;;;17.70;10.95;;;5.00;99.90;;;;;;5091018;28;20074;-53
2021/12/29 04:01:00;;;;;;;18.63;10.68;;;5.00;99.90;;;;;;5090822;28;20052;-54
2021/12/29 04:03:27;;;;;;;18.92;11.73;;;5.00;99.90;;;;;;5094208;28;20127;-52
2021/12/29 04:05:54;;;;;;;19.70;11.77;;;5.00;99.90;;;;;;5094014;28;20040;-52
2021/12/29 04:08:21;;;;;;;18.88;12.23;;;5.00;99.90;;;;;;5094469;28;20036;-54
2021/12/29 04:10:48;;;;;;;21.27;12.80;;;4.90;99.90;;;;;;5094217;28;20040;-52
2021/12/29 04:13:15;;;;;;;18.08;11.63;;;4.90;99.90;;;;;;5094350;28;20044;-54
2021/12/29 04:15:42;;;;;;;18.75;11.18;;;4.90;99.90;;;;;;5094041;28;20044;-52
2021/12/29 04:18:15;;;;;;;18.25;10.98;;;4.90;99.90;;;;;;5094350;28;20085;-53
2021/12/29 04:20:57;;;;;;;15.40;9.80;;;4.90;99.90;;;;;;5094116;28;20048;-53
2021/12/29 04:23:29;;;;;;;17.13;10.77;;;4.90;99.90;;;;;;5078586;28;20047;-53
2021/12/29 04:26:00;;;;;;;19.27;11.35;;;4.90;99.90;;;;;;5093771;28;20032;-53
2021/12/29 04:28:27;;;;;;;25.17;13.50;;;4.80;99.90;;;;;;5106898;22;20139;-61
2021/12/29 04:31:00;;;;;;;18.85;11.48;;;5.00;99.90;;;;;;5093513;28;20048;-58
2021/12/29 04:33:28;;;;;;;17.05;10.80;;;4.80;99.90;;;;;;5092475;28;20048;-61
2021/12/29 04:35:55;;;;;;;17.27;10.43;;;4.80;99.90;;;;;;5093613;28;20119;-60
2021/12/29 04:38:24;;;;;;;14.25;7.63;;;4.80;99.90;;;;;;5093898;28;20499;-60
2021/12/29 04:40:53;;;;;;;12.80;7.78;;;4.80;99.90;;;;;;5093843;28;20040;-58
2021/12/29 04:43:20;;;;;;;9.07;6.28;;;4.70;99.90;;;;;;5093697;28;20076;-60
2021/12/29 04:45:47;;;;;;;10.02;6.25;;;4.70;99.90;;;;;;5093232;28;20455;-61
2021/12/29 04:48:15;;;;;;;;;;;4.70;99.90;;;;;;5094056;28;20063;-58
2021/12/29 04:50:50;;;;;;;17.33;11.65;;;4.70;99.90;;;;;;5093761;28;19924;-58
2021/12/29 04:53:19;;;;;;;20.30;11.90;;;4.70;99.90;;;;;;5093654;28;20051;-58
2021/12/29 04:55:49;;;;;;;19.00;11.57;;;4.70;99.90;;;;;;5093126;28;20492;-58
2021/12/29 04:58:18;;;;;;;20.00;11.82;;;4.70;99.90;;;;;;5093527;28;20040;-58
2021/12/29 05:00:47;;;;;;;23.05;13.05;;;4.60;99.90;;;;;;5093532;28;20047;-59
2021/12/29 05:03:15;;;;;;;24.05;13.38;;;4.60;99.90;;;;;;5109097;28;20043;-58
2021/12/29 05:08:29;;;;;;;27.33;13.60;;;4.60;99.90;;;;;;5093355;28;20066;-58
2021/12/29 05:11:02;;;;;;;21.73;13.43;;;4.70;99.90;;;;;;5093184;28;20507;-58
2021/12/29 05:13:31;;;;;;;20.98;12.38;;;4.70;99.90;;;;;;5093048;28;20047;-58
2021/12/29 05:15:59;;;;;;;30.65;15.32;;;4.80;99.90;;;;;;5089576;28;20069;-61
2021/12/29 05:18:29;;;;;;;35.35;16.30;;;4.80;99.90;;;;;;5092956;28;20051;-58
2021/12/29 05:20:57;;;;;;;24.77;13.00;;;4.90;99.90;;;;;;5093102;28;20040;-61
2021/12/29 05:23:25;;;;;;;21.75;12.43;;;4.90;99.90;;;;;;5092862;28;20083;-59
2021/12/29 05:25:53;;;;;;;19.27;12.10;;;5.00;99.90;;;;;;5091051;28;20101;-60
2021/12/29 05:28:21;;;;;;;21.35;12.23;;;5.00;99.90;;;;;;5072509;28;20037;-60
2021/12/29 05:30:48;;;;;;;15.93;9.75;;;5.00;99.90;;;;;;5072590;28;20040;-58
2021/12/29 05:33:16;;;;;;;22.15;13.02;;;5.00;99.90;;;;;;5072619;28;20489;-58
2021/12/29 05:35:43;;;;;;;21.20;12.93;;;5.00;99.90;;;;;;5071896;28;20040;-58
2021/12/29 05:38:10;;;;;;;;;;;5.00;99.90;;;;;;5090668;28;20487;-58
2021/12/29 05:40:37;;;;;;;18.70;11.55;;;5.00;99.90;;;;;;5092724;28;19920;-61
2021/12/29 05:43:04;;;;;;;23.08;9.98;;;5.00;99.90;;;;;;5092635;28;20126;-58
2021/12/29 05:45:32;;;;;;;18.60;10.77;;;5.00;99.90;;;;;;5092332;28;20086;-58
2021/12/29 05:47:59;;;;;;;12.88;7.35;;;5.00;99.90;;;;;;5077935;28;20048;-58
2021/12/29 05:50:28;;;;;;;12.70;7.60;;;5.00;99.90;;;;;;5072231;28;20040;-60
2021/12/29 05:52:55;;;;;;;13.25;8.23;;;5.10;99.90;;;;;;5072196;28;20044;-58
2021/12/29 05:55:22;;;;;;;;;;;5.10;99.90;;;;;;5072235;28;20044;-59
2021/12/29 05:57:49;;;;;;;16.15;9.52;;;5.10;99.90;;;;;;5082367;28;19930;-61
2021/12/29 06:00:19;;;;;;;14.90;9.13;;;5.10;99.90;;;;;;5083326;28;20024;-59
2021/12/29 06:02:46;;;;;;;16.17;9.38;;;5.10;99.90;;;;;;5081083;28;20071;-58
2021/12/29 06:05:14;;;;;;;13.82;8.80;;;5.10;99.90;;;;;;5080701;28;20028;-58
2021/12/29 06:07:41;;;;;;;12.27;8.05;;;5.10;99.90;;;;;;5082548;28;20047;-59
2021/12/29 06:10:08;;;;;;;14.85;9.00;;;5.20;99.90;;;;;;5081336;28;20059;-59
2021/12/29 06:12:39;;;;;;;12.70;7.80;;;5.20;99.90;;;;;;5080956;28;20491;-58
2021/12/29 06:15:07;;;;;;;13.68;7.53;;;5.30;99.90;;;;;;5083433;28;20044;-59
2021/12/29 06:17:36;;;;;;;9.55;7.28;;;5.30;99.90;;;;;;5091703;28;20075;-59
2021/12/29 06:20:05;;;;;;;12.60;7.60;;;5.30;99.90;;;;;;5092025;28;20040;-58
2021/12/29 06:22:32;;;;;;;11.25;6.32;;;5.30;99.90;;;;;;5091962;28;20040;-61
2021/12/29 06:24:59;;;;;;;11.13;6.60;;;5.30;99.90;;;;;;5091534;28;20044;-58
2021/12/29 06:27:26;;;;;;;9.07;5.85;;;5.30;99.90;;;;;;5091325;28;20044;-58
2021/12/29 06:29:53;;;;;;;10.02;5.97;;;5.30;99.90;;;;;;5091702;28;20048;-58
2021/12/29 06:32:20;;;;;;;11.68;6.70;;;5.30;99.90;;;;;;5091693;28;20048;-59
2021/12/29 06:34:48;;;;;;;13.30;8.52;;;5.40;99.90;;;;;;5091762;28;20070;-59
2021/12/29 06:37:15;;;;;;;12.13;8.07;;;5.30;99.90;;;;;;5091252;28;20075;-61
2021/12/29 06:39:44;;;;;;;16.10;9.70;;;5.30;99.90;;;;;;5091684;28;20128;-58
2021/12/29 06:42:13;;;;;;;13.70;8.07;;;5.40;99.90;;;;;;5091724;28;20048;-59
2021/12/29 06:44:40;;;;;;;12.93;8.13;;;5.30;99.90;;;;;;5091528;28;20044;-58
2021/12/29 06:47:07;;;;;;;11.73;7.95;;;5.20;99.90;;;;;;5087563;28;20093;-59
2021/12/29 06:49:35;;;;;;;15.93;9.35;;;5.20;99.90;;;;;;5091677;28;20043;-59
2021/12/29 06:52:03;;;;;;;17.70;9.60;;;5.30;99.90;;;;;;5082135;28;20102;-59
2021/12/29 06:54:31;;;;;;;16.10;9.18;;;5.30;99.90;;;;;;5086580;28;20047;-59
2021/12/29 06:56:58;;;;;;;15.75;9.70;;;5.30;99.90;;;;;;5071767;28;20048;-59
2021/12/29 06:59:26;;;;;;;17.00;9.27;;;5.30;99.90;;;;;;5069459;28;20070;-59
2021/12/29 07:01:53;;;;;;;20.10;13.10;;;5.30;99.90;;;;;;5073166;28;20093;-59
2021/12/29 07:04:22;;;;;;;23.95;14.98;;;5.30;99.90;;;;;;5071041;28;20568;-59
2021/12/29 07:06:52;;;;;;;19.20;12.15;;;5.30;99.90;;;;;;5070787;28;20041;-59
2021/12/29 07:09:20;;;;;;;15.63;10.23;;;5.30;99.90;;;;;;5071064;28;20049;-59
2021/12/29 07:11:47;;;;;;;18.05;11.57;;;5.30;99.90;;;;;;5052836;28;20444;-59
2021/12/29 07:14:14;;;;;;;24.50;12.65;;;5.20;99.90;;;;;;5053706;28;20041;-59
2021/12/29 07:16:44;;;;;;;25.20;14.68;;;5.20;99.90;;;;;;5070746;28;20512;-59
2021/12/29 07:19:11;;;;;;;26.10;13.70;;;5.20;99.90;;;;;;5071080;28;20102;-59
2021/12/29 07:21:38;;;;;;;12.85;7.40;;;5.20;99.90;;;;;;5083314;28;20071;-59
2021/12/29 07:24:06;;;;;;;13.00;6.82;;;5.20;99.90;;;;;;5091188;28;20047;-59
2021/12/29 07:26:34;;;;;;;9.88;5.57;;;5.20;99.90;;;;;;5090625;28;20135;-59
2021/12/29 07:29:03;;;;;;;8.82;4.88;;;5.20;99.90;;;;;;5091150;28;20508;-59
2021/12/29 07:31:30;;;;;;;16.60;7.80;;;5.20;99.90;;;;;;5090419;28;20512;-59
2021/12/29 07:34:17;;;;;;;14.52;7.07;;;5.30;99.90;;;;;;5091169;28;20119;-59
2021/12/29 07:36:43;;;;;;;14.80;6.28;;;5.20;99.90;;;;;;5091360;28;20098;-59
2021/12/29 07:39:11;;;;;;;11.38;6.10;;;5.30;99.90;;;;;;5094797;28;20051;-59
2021/12/29 07:41:40;;;;;;;14.77;6.30;;;5.30;99.90;;;;;;5083567;28;20405;-59
2021/12/29 07:44:08;;;;;;;9.15;5.57;;;5.30;99.90;;;;;;5074665;28;20135;-59
2021/12/29 07:46:35;;;;;;;11.48;5.90;;;5.30;99.90;;;;;;5074129;28;20075;-59
2021/12/29 07:49:03;;;;;;;11.00;5.90;;;5.30;99.90;;;;;;5074371;28;20055;-59
2021/12/29 07:51:30;;;;;;;12.18;6.82;;;5.30;99.90;;;;;;5080123;28;20116;-59
2021/12/29 07:53:58;;;;;;;9.23;5.88;;;5.40;99.90;;;;;;5095089;28;20047;-59
2021/12/29 07:56:24;;;;;;;11.65;5.78;;;5.40;99.90;;;;;;5094371;28;20040;-59
2021/12/29 07:58:52;;;;;;;15.35;5.93;;;5.30;99.90;;;;;;5091178;28;20385;-59
2021/12/29 08:01:19;;;;;;;13.13;6.32;;;5.30;99.90;;;;;;5085404;28;20068;-59
2021/12/29 08:03:46;;;;;;;;;;;5.30;99.90;;;;;;5085358;28;20040;-59
2021/12/29 08:06:15;;;;;;;9.15;5.30;;;5.30;99.90;;;;;;5076510;28;19921;-59
2021/12/29 08:08:43;;;;;;;10.48;4.90;;;5.40;99.90;;;;;;5073919;28;20102;-59
2021/12/29 08:11:10;;;;;;;9.65;5.78;;;5.50;99.90;;;;;;5074175;28;20090;-59
2021/12/29 08:13:37;;;;;;;10.02;6.60;;;5.60;99.90;;;;;;5074033;28;20493;-60
2021/12/29 08:16:04;;;;;;;;;;;5.60;99.90;;;;;;5074183;28;20553;-59
2021/12/29 08:18:31;;;;;;;21.25;11.85;;;5.60;99.90;;;;;;5073756;28;19925;-59
2021/12/29 08:20:58;;;;;;;14.05;7.97;;;5.60;99.90;;;;;;5073983;28;20064;-59
2021/12/29 08:23:25;;;;;;;13.38;8.07;;;5.60;99.90;;;;;;5073877;28;20041;-59
2021/12/29 08:25:52;;;;;;;13.63;6.90;;;5.60;99.90;;;;;;5055761;28;20045;-59
2021/12/29 08:28:20;;;;;;;9.93;6.05;;;5.60;99.90;;;;;;5073800;28;20480;-59
2021/12/29 08:30:47;;;;;;;6.78;3.33;;;5.50;99.90;;;;;;5073748;28;20040;-59
2021/12/29 08:33:14;;;;;;;7.65;3.42;;;5.40;99.90;;;;;;5073673;28;20575;-59
2021/12/29 08:35:41;;;;;;;10.25;5.15;;;5.40;99.90;;;;;;5075731;28;20040;-59
2021/12/29 08:38:08;;;;;;;14.32;6.20;;;5.40;99.90;;;;;;5073740;28;20044;-59
2021/12/29 08:40:35;;;;;;;10.02;6.57;;;5.40;99.90;;;;;;5073682;28;20072;-59
2021/12/29 08:43:03;;;;;;;11.98;7.30;;;5.50;99.90;;;;;;5073497;28;20044;-59
2021/12/29 08:45:31;;;;;;;8.35;4.80;;;5.60;99.90;;;;;;5072809;28;20151;-59
2021/12/29 08:47:59;;;;;;;8.30;4.85;;;5.50;99.90;;;;;;5072859;28;20040;-59
2021/12/29 08:50:32;;;;;;;7.53;4.95;;;5.50;99.90;;;;;;5055504;28;20072;-59
2021/12/29 08:53:02;;;;;;;10.88;5.80;;;5.50;99.90;;;;;;5073734;28;20118;-59
2021/12/29 08:55:31;;;;;;;14.40;8.25;;;5.50;99.90;;;;;;5072855;28;20056;-59
2021/12/29 08:57:59;;;;;;;14.38;8.52;;;5.50;99.90;;;;;;5073131;28;20048;-59
2021/12/29 09:00:26;;;;;;;14.60;8.65;;;5.60;99.90;;;;;;5073528;28;20447;-59
2021/12/29 09:02:53;;;;;;;;;;;5.60;99.90;;;;;;5055738;28;20044;-59
2021/12/29 09:05:21;;;;;;;12.73;7.00;;;5.60;99.90;;;;;;5072652;28;19928;-59
2021/12/29 09:07:47;;;;;;;;;;;5.70;99.90;;;;;;5073366;28;20045;-59
2021/12/29 09:10:16;;;;;;;38.05;18.45;;;5.70;99.90;;;;;;5073072;28;19990;-59
2021/12/29 09:12:44;;;;;;;28.73;14.65;;;5.70;99.90;;;;;;5081161;28;20067;-59
2021/12/29 09:15:11;;;;;;;25.67;13.02;;;5.70;99.90;;;;;;5090040;28;20047;-59
2021/12/29 09:17:38;;;;;;;16.75;11.15;;;5.70;99.90;;;;;;5093006;28;20044;-59
2021/12/29 09:20:12;;;;;;;15.77;8.63;;;5.80;99.90;;;;;;5093203;28;20098;-59
2021/12/29 09:22:40;;;;;;;13.98;8.75;;;5.80;99.90;;;;;;5093032;28;20070;-59
2021/12/29 09:25:08;;;;;;;15.15;9.52;;;5.80;99.90;;;;;;5092681;28;20056;-59
2021/12/29 09:27:35;;;;;;;11.70;7.40;;;5.90;99.90;;;;;;5092512;28;20036;-59
2021/12/29 09:30:03;;;;;;;15.43;8.98;;;5.90;99.90;;;;;;5092799;28;20044;-59
2021/12/29 09:32:31;;;;;;;12.32;8.18;;;6.00;99.90;;;;;;5092325;28;20040;-59
2021/12/29 09:34:59;;;;;;;13.25;8.23;;;6.00;99.90;;;;;;5081029;28;20066;-59
2021/12/29 09:37:27;;;;;;;22.00;9.65;;;6.10;99.90;;;;;;5081955;28;20044;-59
2021/12/29 09:39:54;;;;;;;19.42;10.80;;;6.20;99.90;;;;;;5064866;28;20549;-59
2021/12/29 09:42:21;;;;;;;17.75;11.25;;;6.10;99.90;;;;;;5080943;28;20090;-59
2021/12/29 09:44:50;;;;;;;17.08;11.13;;;6.10;99.90;;;;;;5082161;28;20040;-59
2021/12/29 09:47:18;;;;;;;19.33;11.55;;;6.00;99.90;;;;;;5080223;28;20557;-59
2021/12/29 09:49:45;;;;;;;19.63;11.40;;;5.90;99.90;;;;;;5086086;28;20101;-59
2021/12/29 09:52:12;;;;;;;19.52;12.20;;;5.90;99.90;;;;;;5081794;28;20063;-59
2021/12/29 09:54:39;;;;;;;20.45;12.57;;;5.80;99.90;;;;;;5082666;28;20106;-60
2021/12/29 09:57:06;;;;;;;16.00;10.18;;;5.80;99.90;;;;;;5080487;28;20374;-59
2021/12/29 09:59:32;;;;;;;17.80;12.70;;;5.90;99.90;;;;;;5081493;28;20089;-59
2021/12/29 10:02:05;;;;;;;21.98;13.82;;;5.80;99.90;;;;;;5082695;28;20111;-59
2021/12/29 10:04:34;;;;;;;17.65;11.85;;;5.80;99.90;;;;;;5087006;28;20067;-59
2021/12/29 10:07:13;;;;;;;31.65;15.10;;;5.90;99.90;;;;;;5091619;28;20097;-59
2021/12/29 10:09:40;;;;;;;43.45;19.10;;;6.00;99.90;;;;;;5086238;28;20101;-59
2021/12/29 10:12:10;;;;;;;34.03;16.20;;;6.00;99.90;;;;;;5085870;28;20432;-60
2021/12/29 10:14:38;;;;;;;26.20;14.32;;;6.20;99.90;;;;;;5091537;28;20039;-60
2021/12/29 10:17:11;;;;;;;;;;;6.20;99.90;;;;;;5080337;28;20086;-60
2021/12/29 10:19:38;;;;;;;24.90;14.27;;;6.30;99.90;;;;;;5080783;28;19923;-60
2021/12/29 10:22:05;;;;;;;20.65;11.68;;;6.40;99.90;;;;;;5089072;28;20389;-60
2021/12/29 10:24:32;;;;;;;33.50;14.18;;;6.60;99.90;;;;;;5090964;28;20496;-60
2021/12/29 10:26:59;;;;;;;21.58;12.35;;;6.50;99.90;;;;;;5089690;28;20048;-60
2021/12/29 10:29:28;;;;;;;21.70;12.00;;;6.50;99.90;;;;;;5121169;22;20126;-55
2021/12/29 10:31:58;;;;;;;23.15;11.25;;;6.80;99.90;;;;;;5107020;28;20054;-52
2021/12/29 10:34:29;;;;;;;14.73;9.07;;;7.10;99.90;;;;;;5077855;28;20048;-53
2021/12/29 10:37:09;;;;;;;10.05;6.55;;;7.40;99.90;;;;;;5090405;28;20441;-54
2021/12/29 10:39:49;;;;;;;8.68;4.57;;;7.70;99.90;;;;;;5091164;28;20488;-55
2021/12/29 10:42:17;;;;;;;7.90;5.15;;;7.90;99.90;;;;;;5091317;28;20565;-53
2021/12/29 10:44:53;;;;;;;8.10;5.80;;;7.90;99.90;;;;;;5091489;28;20067;-55
2021/12/29 10:47:26;;;;;;;8.05;5.20;;;8.10;99.90;;;;;;5091195;28;20040;-52
2021/12/29 10:50:01;;;;;;;6.90;5.10;;;8.10;99.90;;;;;;5091614;28;20082;-52
2021/12/29 10:52:45;;;;;;;7.25;5.05;;;8.20;99.90;;;;;;5091364;28;20036;-52
2021/12/29 10:55:31;;;;;;;8.30;4.00;;;8.10;99.90;;;;;;5091330;28;20101;-54
2021/12/29 10:58:03;;;;;;;6.18;4.60;;;8.10;99.90;;;;;;5091588;28;20047;-55
2021/12/29 11:00:47;;;;;;;6.95;4.47;;;8.10;99.90;;;;;;5091447;28;20040;-53
2021/12/29 11:03:18;;;;;;;7.32;4.20;;;8.30;99.90;;;;;;5091406;28;20093;-54
2021/12/29 11:05:48;;;;;;;5.05;4.20;;;8.30;99.90;;;;;;5090879;28;20072;-52
2021/12/29 11:08:16;;;;;;;6.13;3.70;;;8.30;99.90;;;;;;5091209;28;20040;-54
2021/12/29 11:10:47;;;;;;;8.10;3.53;;;8.40;99.90;;;;;;5091914;28;20043;-52
2021/12/29 11:13:26;;;;;;;5.90;3.22;;;8.40;99.90;;;;;;5095549;28;20539;-52
2021/12/29 11:15:54;;;;;;;5.53;3.63;;;8.50;99.90;;;;;;5095044;28;20074;-52
2021/12/29 11:18:22;;;;;;;3.55;2.92;;;8.50;99.90;;;;;;5095422;28;20079;-52
2021/12/29 11:20:54;;;;;;;4.18;3.30;;;8.50;99.90;;;;;;5095421;28;20123;-54
2021/12/29 11:23:22;;;;;;;4.68;3.60;;;8.50;99.90;;;;;;5095373;28;20040;-54
2021/12/29 11:25:51;;;;;;;6.93;3.90;;;8.50;99.90;;;;;;5094692;28;20512;-52
2021/12/29 11:28:30;;;;;;;5.88;3.70;;;8.40;99.90;;;;;;5094954;28;20093;-52
2021/12/29 11:31:00;;;;;;;6.40;3.40;;;8.50;99.90;;;;;;5094921;28;20048;-52
2021/12/29 11:33:31;;;;;;;5.82;3.33;;;8.40;99.90;;;;;;5095175;28;20115;-54
2021/12/29 11:35:59;;;;;;;4.50;3.28;;;8.20;99.90;;;;;;5094653;28;20064;-53
2021/12/29 11:38:26;;;;;;;5.13;3.60;;;8.10;99.90;;;;;;5094961;28;20048;-52
2021/12/29 11:40:57;;;;;;;4.18;3.33;;;8.10;99.90;;;;;;5094922;28;20075;-52
2021/12/29 11:43:24;;;;;;;6.22;3.40;;;8.20;99.90;;;;;;5094990;28;20492;-53
2021/12/29 11:45:55;;;;;;;7.05;4.18;;;8.20;99.90;;;;;;5094471;28;20549;-52
2021/12/29 11:48:24;;;;;;;8.23;4.15;;;8.20;99.90;;;;;;5094682;28;20044;-52
2021/12/29 11:50:57;;;;;;;6.80;3.88;;;8.20;99.90;;;;;;5094758;28;20043;-52
2021/12/29 11:53:31;;;;;;;8.57;3.60;;;8.20;99.90;;;;;;5094649;28;20040;-52
2021/12/29 11:56:03;;;;;;;6.40;3.40;;;8.20;99.90;;;;;;5094356;28;20064;-52
2021/12/29 11:58:38;;;;;;;6.78;3.97;;;8.10;99.90;;;;;;5094686;28;20040;-52
2021/12/29 12:01:13;;;;;;;6.97;3.92;;;7.90;99.90;;;;;;5094569;28;20048;-55
2021/12/29 12:03:52;;;;;;;5.07;3.55;;;7.90;99.90;;;;;;5094876;28;20484;-53
2021/12/29 12:06:40;;;;;;;6.72;3.78;;;8.00;99.90;;;;;;5093872;28;20539;-53
2021/12/29 12:09:20;;;;;;;7.60;3.90;;;8.00;99.90;;;;;;5094245;28;20450;-53
2021/12/29 12:11:55;;;;;;;5.40;3.60;;;8.10;99.90;;;;;;5094277;28;20040;-51
2021/12/29 12:14:31;;;;;;;6.95;4.30;;;8.10;99.90;;;;;;5094408;28;20489;-53
2021/12/29 12:17:04;;;;;;;8.50;4.40;;;8.10;99.90;;;;;;5093930;28;20040;-51
2021/12/29 12:19:32;;;;;;;8.98;5.18;;;8.10;99.90;;;;;;5094052;28;20097;-52
2021/12/29 12:22:13;;;;;;;7.03;4.50;;;8.10;99.90;;;;;;5093775;28;20048;-52
2021/12/29 12:25:01;;;;;;;8.40;5.53;;;8.10;99.90;;;;;;5094063;28;20044;-52
2021/12/29 12:27:35;;;;;;;7.72;5.57;;;8.10;99.90;;;;;;5093567;28;20044;-52
2021/12/29 12:30:11;;;;;;;7.20;5.10;;;8.10;99.90;;;;;;5093944;28;20045;-52
2021/12/29 12:33:08;;;;;;;8.43;5.63;;;8.10;99.90;;;;;;5093812;28;20048;-52
2021/12/29 12:35:38;;;;;;;8.43;5.72;;;8.10;99.90;;;;;;5093615;28;20040;-52
2021/12/29 12:38:27;;;;;;;8.48;5.60;;;8.00;99.90;;;;;;5093796;28;20070;-55
2021/12/29 12:41:12;;;;;;;9.40;5.40;;;8.00;99.90;;;;;;5093770;28;20055;-52
2021/12/29 12:43:54;;;;;;;7.60;5.05;;;8.00;99.90;;;;;;5093707;28;20546;-51
2021/12/29 12:46:27;;;;;;;7.78;5.28;;;7.90;99.90;;;;;;5093467;28;20118;-53
2021/12/29 12:48:55;;;;;;;9.70;5.50;;;7.90;99.90;;;;;;5093396;28;20074;-52
2021/12/29 12:51:22;;;;;;;8.75;5.50;;;7.90;99.90;;;;;;5093406;28;20040;-52
2021/12/29 12:53:50;;;;;;;7.10;5.50;;;7.90;99.90;;;;;;5075622;28;20407;-52
2021/12/29 12:56:22;;;;;;;8.45;6.07;;;7.90;99.90;;;;;;5093170;28;20032;-52
2021/12/29 12:58:51;;;;;;;9.02;4.95;;;8.00;99.90;;;;;;5093678;28;20405;-52
2021/12/29 13:01:26;;;;;;;9.00;6.00;;;8.00;99.90;;;;;;5093236;28;20462;-52
2021/12/29 13:04:01;;;;;;;7.53;5.25;;;8.10;99.90;;;;;;5093192;28;20089;-54
2021/12/29 13:06:34;;;;;;;7.75;5.40;;;8.00;99.90;;;;;;5092893;28;20408;-52